createdAt,value
2018-03-15T00:02:30.204Z,25.30
2018-03-15T00:04:58.509Z,26.43
2018-03-15T00:07:26.812Z,33.40
2018-03-15T00:09:57.041Z,25.77
2018-03-15T00:12:25.351Z,30.97
2018-03-15T00:14:53.685Z,27.43
2018-03-15T00:17:22.299Z,27.27
2018-03-15T00:19:50.608Z,32.53
2018-03-15T00:22:18.980Z,28.27
2018-03-15T00:24:47.785Z,24.43
2018-03-15T00:27:16.096Z,28.17
2018-03-15T00:29:45.225Z,26.03
2018-03-15T00:32:13.550Z,30.17
2018-03-15T00:34:42.383Z,28.03
2018-03-15T00:37:11.556Z,29.10
2018-03-15T00:39:39.901Z,28.27
2018-03-15T00:42:08.240Z,33.30
2018-03-15T00:44:36.572Z,27.40
2018-03-15T00:47:04.872Z,32.63
2018-03-15T00:49:33.246Z,32.30
2018-03-15T00:52:02.318Z,31.17
2018-03-15T00:54:30.625Z,37.20
2018-03-15T00:56:59.843Z,38.87
2018-03-15T00:59:28.160Z,34.90
2018-03-15T01:01:56.470Z,36.77
2018-03-15T01:04:25.600Z,41.13
2018-03-15T01:06:54.826Z,33.40
2018-03-15T01:09:23.151Z,41.80
2018-03-15T01:11:51.511Z,40.70
2018-03-15T01:14:19.832Z,38.00
2018-03-15T01:16:48.144Z,43.73
2018-03-15T01:19:16.581Z,36.97
2018-03-15T01:21:44.887Z,36.53
2018-03-15T01:24:13.196Z,43.70
2018-03-15T01:26:41.549Z,36.00
2018-03-15T01:29:10.451Z,38.37
2018-03-15T01:31:38.762Z,36.90
2018-03-15T01:34:07.511Z,33.77
2018-03-15T01:36:35.858Z,32.40
2018-03-15T01:39:04.180Z,26.17
2018-03-15T01:41:32.549Z,36.83
2018-03-15T01:44:00.856Z,47.00
2018-03-15T01:46:29.928Z,38.70
2018-03-15T01:48:58.982Z,36.53
2018-03-15T01:51:27.294Z,36.93
2018-03-15T01:53:55.608Z,41.37
2018-03-15T01:56:24.395Z,39.90
2018-03-15T01:58:52.720Z,44.03
2018-03-15T02:01:21.036Z,34.57
2018-03-15T02:03:50.139Z,38.00
2018-03-15T02:06:19.212Z,42.20
2018-03-15T02:08:47.552Z,35.50
2018-03-15T02:11:15.976Z,41.60
2018-03-15T02:13:44.997Z,45.27
2018-03-15T02:16:13.341Z,43.37
2018-03-15T02:18:41.661Z,44.93
2018-03-15T02:21:09.972Z,43.13
2018-03-15T02:23:38.336Z,49.53
2018-03-15T02:26:06.650Z,37.63
2018-03-15T02:28:35.241Z,48.00
2018-03-15T02:31:03.751Z,48.97
2018-03-15T02:33:32.078Z,50.30
2018-03-15T02:36:00.427Z,47.03
2018-03-15T02:38:29.164Z,46.33
2018-03-15T02:40:57.847Z,42.90
2018-03-15T02:43:26.264Z,48.53
2018-03-15T02:45:54.801Z,46.53
2018-03-15T02:48:23.157Z,46.80
2018-03-15T02:50:51.629Z,46.67
2018-03-15T02:53:19.949Z,46.93
2018-03-15T02:55:48.253Z,49.40
2018-03-15T02:58:17.363Z,46.83
2018-03-15T03:00:45.677Z,54.43
2018-03-15T03:03:14.709Z,42.37
2018-03-15T03:05:43.845Z,47.27
2018-03-15T03:08:12.160Z,54.00
2018-03-15T03:10:40.493Z,45.97
2018-03-15T03:13:09.621Z,46.10
2018-03-15T03:15:37.933Z,47.30
2018-03-15T03:18:07.009Z,42.33
2018-03-15T03:20:35.474Z,44.53
2018-03-15T03:23:03.804Z,44.80
2018-03-15T03:25:32.114Z,39.93
2018-03-15T03:28:00.455Z,35.27
2018-03-15T03:30:28.778Z,32.00
2018-03-15T03:32:57.089Z,45.87
2018-03-15T03:35:25.512Z,42.70
2018-03-15T03:37:53.837Z,45.37
2018-03-15T03:40:22.148Z,43.50
2018-03-15T03:42:51.120Z,46.20
2018-03-15T03:45:19.437Z,48.37
2018-03-15T03:47:47.749Z,50.87
2018-03-15T03:50:16.084Z,40.93
2018-03-15T03:52:44.435Z,46.73
2018-03-15T03:55:12.758Z,46.27
2018-03-15T03:57:42.532Z,46.07
2018-03-15T04:00:10.904Z,45.20
2018-03-15T04:02:39.702Z,42.40
2018-03-15T04:05:08.783Z,38.27
2018-03-15T04:07:37.324Z,39.63
2018-03-15T04:10:05.634Z,41.97
2018-03-15T04:12:34.100Z,36.60
2018-03-15T04:15:02.429Z,33.60
2018-03-15T04:17:30.505Z,39.83
2018-03-15T04:19:58.861Z,42.57
2018-03-15T04:22:27.948Z,35.50
2018-03-15T04:24:57.328Z,38.10
2018-03-15T04:27:25.686Z,32.27
2018-03-15T04:29:53.992Z,38.50
2018-03-15T04:32:22.300Z,41.77
2018-03-15T04:34:50.808Z,35.87
2018-03-15T04:37:19.572Z,39.57
2018-03-15T04:39:47.888Z,35.47
2018-03-15T04:42:16.264Z,29.60
2018-03-15T04:44:44.593Z,36.30
2018-03-15T04:47:13.285Z,33.43
2018-03-15T04:49:41.627Z,29.93
2018-03-15T04:52:09.949Z,28.77
2018-03-15T04:54:38.290Z,27.97
2018-03-15T04:57:06.599Z,30.03
2018-03-15T04:59:34.914Z,23.87
2018-03-15T05:02:03.324Z,36.60
2018-03-15T05:04:31.840Z,33.40
2018-03-15T05:07:00.186Z,32.20
2018-03-15T05:09:28.566Z,26.70
2018-03-15T05:11:58.232Z,32.57
2018-03-15T05:14:26.581Z,33.00
2018-03-15T05:16:55.312Z,38.37
2018-03-15T05:19:23.693Z,34.83
2018-03-15T05:21:52.066Z,29.53
2018-03-15T05:24:20.828Z,25.37
2018-03-15T05:26:49.152Z,37.17
2018-03-15T05:29:17.510Z,41.77
2018-03-15T05:31:45.860Z,35.60
2018-03-15T05:34:14.203Z,40.90
2018-03-15T05:36:42.575Z,32.60
2018-03-15T05:39:10.930Z,52.63
2018-03-15T05:41:39.267Z,35.57
2018-03-15T05:44:07.639Z,36.40
2018-03-15T05:46:36.749Z,28.10
2018-03-15T05:49:05.124Z,32.53
2018-03-15T05:51:34.000Z,32.23
2018-03-15T05:54:02.339Z,25.23
2018-03-15T05:56:30.672Z,28.70
2018-03-15T05:58:59.045Z,24.50
2018-03-15T06:01:27.382Z,27.77
2018-03-15T06:03:55.708Z,36.57
2018-03-15T06:06:24.437Z,24.43
2018-03-15T06:08:52.770Z,31.30
2018-03-15T06:11:21.100Z,29.33
2018-03-15T06:13:49.532Z,35.20
2018-03-15T06:16:17.925Z,32.63
2018-03-15T06:18:46.320Z,31.33
2018-03-15T06:21:14.968Z,22.73
2018-03-15T06:23:43.464Z,32.87
2018-03-15T06:26:11.839Z,18.17
2018-03-15T06:28:40.906Z,32.60
2018-03-15T06:31:09.674Z,28.43
2018-03-15T06:33:38.018Z,28.60
2018-03-15T06:36:06.361Z,32.73
2018-03-15T06:38:35.516Z,36.17
2018-03-15T06:41:03.880Z,32.33
2018-03-15T06:43:32.222Z,18.77
2018-03-15T06:46:00.744Z,30.63
2018-03-15T06:48:29.094Z,30.43
2018-03-15T06:50:57.454Z,29.10
2018-03-15T06:53:25.847Z,28.17
2018-03-15T06:55:54.649Z,25.87
2018-03-15T06:58:22.980Z,27.37
2018-03-15T07:00:51.385Z,20.13
2018-03-15T07:03:19.725Z,26.73
2018-03-15T07:05:49.444Z,25.73
2018-03-15T07:08:18.421Z,29.77
2018-03-15T07:10:47.499Z,26.03
2018-03-15T07:13:15.831Z,23.70
2018-03-15T07:15:44.920Z,31.83
2018-03-15T07:18:13.477Z,31.03
2018-03-15T07:20:42.201Z,24.50
2018-03-15T07:23:10.516Z,26.90
2018-03-15T07:25:38.897Z,25.03
2018-03-15T07:28:07.221Z,23.07
2018-03-15T07:30:35.700Z,25.50
2018-03-15T07:33:04.188Z,30.90
2018-03-15T07:35:32.667Z,26.63
2018-03-15T07:38:01.633Z,24.13
2018-03-15T07:40:30.112Z,31.07
2018-03-15T07:42:58.457Z,24.10
2018-03-15T07:45:26.799Z,20.87
2018-03-15T07:47:55.185Z,24.73
2018-03-15T07:50:24.307Z,23.57
2018-03-15T07:52:52.650Z,26.97
2018-03-15T07:55:21.814Z,21.00
2018-03-15T07:57:50.166Z,17.17
2018-03-15T08:00:18.503Z,15.40
2018-03-15T08:02:46.982Z,25.20
2018-03-15T08:05:15.335Z,21.43
2018-03-15T08:07:43.739Z,21.87
2018-03-15T08:10:12.117Z,25.13
2018-03-15T08:12:41.217Z,23.67
2018-03-15T08:15:10.316Z,17.07
2018-03-15T08:17:39.485Z,22.27
2018-03-15T08:20:08.296Z,21.90
2018-03-15T08:22:36.628Z,21.00
2018-03-15T08:25:05.582Z,23.70
2018-03-15T08:27:34.045Z,18.00
2018-03-15T08:30:02.956Z,23.03
2018-03-15T08:32:31.279Z,19.93
2018-03-15T08:34:59.905Z,20.60
2018-03-15T08:37:28.496Z,20.07
2018-03-15T08:39:57.584Z,18.67
2018-03-15T08:42:26.781Z,20.47
2018-03-15T08:44:55.108Z,17.67
2018-03-15T08:47:23.424Z,15.30
2018-03-15T08:49:51.810Z,21.07
2018-03-15T08:52:20.917Z,17.33
2018-03-15T08:54:49.308Z,15.40
2018-03-15T08:57:18.464Z,19.50
2018-03-15T08:59:46.764Z,18.83
2018-03-15T09:02:15.181Z,22.00
2018-03-15T09:04:44.264Z,17.93
2018-03-15T09:07:13.961Z,15.97
2018-03-15T09:09:42.189Z,21.47
2018-03-15T09:12:10.576Z,21.90
2018-03-15T09:14:38.977Z,17.80
2018-03-15T09:17:07.453Z,19.17
2018-03-15T09:19:35.791Z,18.33
2018-03-15T09:22:04.757Z,23.53
2018-03-15T09:24:33.086Z,25.13
2018-03-15T09:27:01.451Z,19.33
2018-03-15T09:29:29.967Z,20.03
2018-03-15T09:31:58.315Z,25.17
2018-03-15T09:34:26.786Z,17.27
2018-03-15T09:36:55.062Z,15.30
2018-03-15T09:39:23.413Z,17.00
2018-03-15T09:41:51.821Z,13.07
2018-03-15T09:44:20.268Z,18.73
2018-03-15T09:46:48.604Z,15.87
2018-03-15T09:49:17.013Z,15.60
2018-03-15T09:51:45.347Z,13.73
2018-03-15T09:54:13.688Z,16.93
2018-03-15T09:56:42.217Z,23.60
2018-03-15T09:59:10.710Z,18.33
2018-03-15T10:01:39.084Z,15.93
2018-03-15T10:04:07.584Z,19.83
2018-03-15T10:06:36.679Z,19.47
2018-03-15T10:09:06.471Z,20.13
2018-03-15T10:11:34.866Z,15.87
2018-03-15T10:14:03.360Z,16.50
2018-03-15T10:16:32.504Z,17.10
2018-03-15T10:19:01.136Z,15.00
2018-03-15T10:21:29.616Z,17.30
2018-03-15T10:23:58.724Z,13.80
2018-03-15T10:26:27.067Z,21.00
2018-03-15T10:28:56.002Z,14.43
2018-03-15T10:31:24.368Z,19.30
2018-03-15T10:33:53.637Z,17.80
2018-03-15T10:36:22.013Z,18.10
2018-03-15T10:38:50.351Z,21.83
2018-03-15T10:41:18.806Z,23.33
2018-03-15T10:43:47.191Z,19.13
2018-03-15T10:46:15.533Z,18.10
2018-03-15T10:48:43.927Z,18.20
2018-03-15T10:51:13.406Z,23.63
2018-03-15T10:53:41.740Z,17.87
2018-03-15T10:56:10.279Z,14.20
2018-03-15T10:58:38.672Z,22.57
2018-03-15T11:01:07.776Z,18.90
2018-03-15T11:03:50.027Z,20.93
2018-03-15T11:06:23.892Z,19.43
2018-03-15T11:08:57.656Z,23.40
2018-03-15T11:11:26.115Z,20.53
2018-03-15T11:13:54.496Z,19.17
2018-03-15T11:16:22.836Z,22.87
2018-03-15T11:18:52.181Z,24.97
2018-03-15T11:21:20.577Z,19.73
2018-03-15T11:23:49.015Z,21.77
2018-03-15T11:26:17.363Z,19.23
2018-03-15T11:28:46.568Z,16.37
2018-03-15T11:31:15.752Z,25.40
2018-03-15T11:33:44.088Z,23.67
2018-03-15T11:36:12.493Z,18.20
2018-03-15T11:38:41.171Z,19.83
2018-03-15T11:41:09.509Z,17.47
2018-03-15T11:43:37.843Z,18.90
2018-03-15T11:46:06.233Z,20.43
2018-03-15T11:48:34.568Z,20.13
2018-03-15T11:51:05.064Z,20.07
2018-03-15T11:53:33.465Z,17.90
2018-03-15T11:56:02.112Z,18.97
2018-03-15T11:58:30.453Z,19.40
2018-03-15T12:00:58.832Z,22.13
2018-03-15T12:03:27.802Z,26.13
2018-03-15T12:05:56.715Z,18.87
2018-03-15T12:08:27.041Z,20.97
2018-03-15T12:10:55.384Z,28.53
2018-03-15T12:13:23.724Z,19.10
2018-03-15T12:15:52.117Z,19.77
2018-03-15T12:18:21.216Z,22.40
2018-03-15T12:20:49.544Z,22.73
2018-03-15T12:23:18.813Z,22.57
2018-03-15T12:25:47.132Z,20.83
2018-03-15T12:28:15.460Z,16.87
2018-03-15T12:30:43.853Z,22.43
2018-03-15T12:33:12.300Z,19.53
2018-03-15T12:35:40.616Z,25.50
2018-03-15T12:38:08.977Z,20.90
2018-03-15T12:40:37.301Z,18.17
2018-03-15T12:43:05.626Z,19.33
2018-03-15T12:45:34.771Z,20.40
2018-03-15T12:48:03.099Z,19.90
2018-03-15T12:50:32.192Z,20.60
2018-03-15T12:53:00.555Z,16.73
2018-03-15T12:55:28.876Z,17.53
2018-03-15T12:57:57.662Z,16.00
2018-03-15T13:00:26.417Z,16.40
2018-03-15T13:02:54.752Z,20.27
2018-03-15T13:05:23.097Z,19.43
2018-03-15T13:07:51.464Z,19.30
2018-03-15T13:10:19.792Z,19.37
2018-03-15T13:15:22.709Z,22.07
2018-03-15T13:17:51.037Z,18.87
2018-03-15T13:20:19.454Z,16.27
2018-03-15T13:22:47.829Z,14.60
2018-03-15T13:25:17.064Z,20.20
2018-03-15T13:27:47.389Z,18.87
2018-03-15T13:30:15.802Z,16.60
2018-03-15T13:32:44.134Z,18.10
2018-03-15T13:35:12.465Z,21.60
2018-03-15T13:37:41.037Z,17.27
2018-03-15T13:40:09.353Z,27.50
2018-03-15T13:42:37.681Z,17.40
2018-03-15T13:45:06.073Z,17.70
2018-03-15T13:47:35.158Z,14.00
2018-03-15T13:50:04.250Z,20.20
2018-03-15T13:52:33.525Z,17.80
2018-03-15T13:55:01.841Z,17.67
2018-03-15T13:57:30.177Z,17.90
2018-03-15T13:59:59.307Z,16.93
2018-03-15T14:02:28.180Z,26.27
2018-03-15T14:04:58.220Z,14.47
2018-03-15T14:07:27.645Z,16.90
2018-03-15T14:09:55.960Z,18.07
2018-03-15T14:12:24.279Z,16.33
2018-03-15T14:14:52.856Z,17.30
2018-03-15T14:17:21.274Z,20.67
2018-03-15T14:19:50.952Z,18.70
2018-03-15T14:22:19.359Z,17.83
2018-03-15T14:24:47.881Z,17.00
2018-03-15T14:27:16.239Z,22.00
2018-03-15T14:29:44.673Z,24.37
2018-03-15T14:32:13.793Z,22.37
2018-03-15T14:34:43.309Z,21.70
2018-03-15T14:37:12.400Z,24.03
2018-03-15T14:39:40.722Z,25.60
2018-03-15T14:42:11.060Z,20.47
2018-03-15T14:44:39.452Z,22.30
2018-03-15T15:26:06.213Z,17.93
2018-03-15T15:28:34.689Z,22.40
2018-03-15T15:31:03.945Z,18.40
2018-03-15T15:33:32.410Z,29.07
2018-03-15T15:36:01.705Z,17.83
2018-03-15T15:38:30.889Z,17.93
2018-03-15T15:40:59.305Z,18.50
2018-03-15T15:43:27.698Z,19.30
2018-03-15T15:45:56.888Z,19.37
2018-03-15T15:48:25.337Z,18.77
2018-03-15T15:50:53.718Z,20.27
2018-03-15T15:53:22.113Z,18.13
2018-03-15T15:55:50.616Z,23.80
2018-03-15T15:58:19.033Z,23.47
2018-03-15T16:00:47.434Z,18.07
2018-03-15T16:03:15.855Z,21.37
2018-03-15T16:05:45.502Z,20.27
2018-03-15T16:08:35.638Z,17.03
2018-03-15T16:11:04.084Z,18.63
2018-03-15T16:13:36.572Z,20.10
2018-03-15T16:16:05.885Z,19.13
2018-03-15T16:18:35.876Z,18.97
2018-03-15T16:21:04.589Z,18.20
2018-03-15T16:23:33.001Z,15.60
2018-03-15T16:26:01.560Z,17.77
2018-03-15T16:28:30.984Z,17.80
2018-03-15T16:31:00.253Z,19.90
2018-03-15T16:33:35.079Z,17.80
2018-03-15T16:36:04.316Z,16.30
2018-03-15T16:38:32.909Z,20.73
2018-03-15T16:41:01.348Z,17.90
2018-03-15T16:43:29.753Z,17.83
2018-03-15T16:45:58.228Z,17.13
2018-03-15T16:48:26.654Z,18.50
2018-03-15T16:50:55.783Z,21.87
2018-03-15T16:53:24.154Z,17.50
2018-03-15T16:55:52.630Z,17.53
2018-03-15T16:58:21.231Z,17.30
2018-03-15T17:00:49.614Z,20.30
2018-03-15T17:03:18.922Z,19.50
2018-03-15T17:05:47.315Z,15.73
2018-03-15T17:08:15.710Z,17.23
2018-03-15T17:10:44.288Z,16.47
2018-03-15T17:13:12.679Z,17.30
2018-03-15T17:15:41.023Z,19.27
2018-03-15T17:18:10.277Z,22.67
2018-03-15T17:20:38.621Z,17.27
2018-03-15T17:23:06.957Z,20.30
2018-03-15T17:25:35.371Z,20.27
2018-03-15T17:28:04.101Z,19.43
2018-03-15T17:30:32.547Z,19.03
2018-03-15T17:33:00.995Z,19.80
2018-03-15T17:35:29.367Z,25.47
2018-03-15T17:37:57.744Z,19.73
2018-03-15T17:40:26.233Z,18.50
2018-03-15T17:42:54.776Z,18.93
2018-03-15T17:45:23.940Z,22.33
2018-03-15T17:47:52.390Z,31.50
2018-03-15T17:50:20.784Z,30.27
2018-03-15T17:52:49.205Z,24.70
2018-03-15T17:55:17.652Z,24.07
2018-03-15T17:58:06.052Z,32.00
2018-03-15T18:00:34.521Z,34.57
2018-03-15T18:03:03.046Z,28.93
2018-03-15T18:05:32.237Z,22.97
2018-03-15T18:08:06.627Z,24.07
2018-03-15T18:10:35.118Z,22.30
2018-03-15T18:16:04.507Z,24.00
2018-03-15T18:18:33.015Z,22.10
2018-03-15T18:21:03.447Z,22.27
2018-03-15T18:23:31.916Z,21.43
2018-03-15T18:26:00.264Z,25.03
2018-03-15T18:28:28.585Z,19.43
2018-03-15T18:30:57.461Z,22.37
2018-03-15T18:33:26.473Z,22.07
2018-03-15T18:35:54.967Z,21.27
2018-03-15T18:38:23.901Z,20.00
2018-03-15T18:40:52.309Z,22.57
2018-03-15T18:43:20.621Z,27.80
2018-03-15T18:45:49.361Z,20.40
2018-03-15T18:48:17.677Z,18.90
2018-03-15T18:50:46.144Z,23.93
2018-03-15T18:53:14.709Z,34.07
2018-03-15T18:55:46.067Z,23.60
2018-03-15T18:58:14.596Z,24.83
2018-03-15T19:00:42.904Z,26.63
2018-03-15T19:03:11.223Z,29.90
2018-03-15T19:05:39.894Z,30.17
2018-03-15T19:08:08.250Z,22.73
2018-03-15T19:10:36.573Z,22.97
2018-03-15T19:13:05.001Z,34.00
2018-03-15T19:15:33.584Z,33.40
2018-03-15T19:18:01.896Z,32.97
2018-03-15T19:20:30.350Z,44.30
2018-03-15T19:22:58.781Z,31.17
2018-03-15T19:25:27.272Z,35.83
2018-03-15T19:27:55.584Z,36.07
2018-03-15T19:30:24.710Z,32.97
2018-03-15T19:32:53.910Z,34.60
2018-03-15T19:35:23.745Z,35.30
2018-03-15T19:37:52.837Z,28.83
2018-03-15T19:40:22.140Z,26.67
2018-03-15T19:42:50.948Z,28.97
2018-03-15T19:45:20.124Z,30.27
2018-03-15T19:47:48.493Z,32.90
2018-03-15T19:50:17.601Z,28.90
2018-03-15T19:52:46.455Z,36.23
2018-03-15T19:55:14.816Z,29.87
2018-03-15T19:57:43.144Z,24.30
2018-03-15T20:00:11.457Z,32.53
2018-03-15T20:02:41.949Z,32.03
2018-03-15T20:05:10.445Z,31.43
2018-03-15T20:07:38.993Z,27.47
2018-03-15T20:10:08.104Z,30.97
2018-03-15T20:12:36.411Z,26.30
2018-03-15T20:15:04.919Z,22.73
2018-03-15T20:17:33.444Z,21.53
2018-03-15T20:20:03.371Z,21.07
2018-03-15T20:35:59.314Z,19.70
2018-03-15T20:38:27.656Z,15.53
2018-03-15T20:41:01.544Z,12.13
2018-03-15T20:43:29.878Z,11.60
2018-03-15T20:46:03.852Z,11.37
2018-03-15T20:48:37.729Z,12.67
2018-03-15T20:51:06.885Z,10.83
2018-03-15T20:53:35.233Z,10.93
2018-03-15T20:56:03.536Z,9.63
2018-03-15T20:58:31.909Z,10.47
2018-03-15T21:01:00.630Z,11.93
2018-03-15T21:03:28.943Z,14.27
2018-03-15T21:05:57.887Z,10.77
2018-03-15T21:08:26.604Z,12.40
2018-03-15T21:10:54.912Z,10.37
2018-03-15T21:13:23.228Z,10.20
2018-03-15T21:15:51.561Z,10.73
2018-03-15T21:18:20.645Z,11.20
2018-03-15T21:20:49.776Z,10.37
2018-03-15T21:23:18.088Z,9.60
2018-03-15T21:25:46.792Z,10.93
2018-03-15T21:28:15.212Z,12.30
2018-03-15T21:30:43.656Z,14.10
2018-03-15T21:33:12.056Z,14.33
2018-03-15T21:35:40.498Z,12.60
2018-03-15T21:38:08.897Z,13.33
2018-03-15T21:40:37.205Z,13.33
2018-03-15T21:43:05.567Z,13.50
2018-03-15T21:45:33.882Z,14.23
2018-03-15T21:48:02.188Z,21.13
2018-03-15T21:50:30.557Z,14.70
2018-03-15T21:52:58.938Z,13.63
2018-03-15T21:55:27.907Z,14.03
2018-03-15T21:57:57.049Z,14.50
2018-03-15T22:00:27.081Z,13.03
2018-03-15T22:02:57.142Z,14.70
2018-03-15T22:07:58.986Z,14.50
2018-03-15T22:10:27.428Z,14.57
2018-03-15T22:12:55.872Z,16.40
2018-03-15T22:15:24.292Z,12.87
2018-03-15T22:17:52.804Z,14.40
2018-03-15T22:20:21.986Z,14.57
2018-03-15T22:22:50.487Z,14.37
2018-03-15T22:25:18.893Z,15.20
2018-03-15T22:27:47.682Z,16.53
2018-03-15T22:30:16.738Z,15.17
2018-03-15T22:32:45.137Z,14.07
2018-03-15T22:35:13.618Z,18.40
2018-03-15T22:37:45.668Z,13.13
2018-03-15T22:40:14.023Z,12.90
2018-03-15T22:42:42.377Z,14.30
2018-03-15T22:45:10.802Z,16.77
2018-03-15T22:47:39.919Z,15.43
2018-03-15T22:50:08.331Z,16.90
2018-03-15T22:52:37.166Z,14.40
2018-03-15T22:55:05.555Z,13.50
2018-03-15T22:57:33.882Z,20.00
2018-03-15T23:00:02.295Z,16.90
2018-03-15T23:02:30.839Z,14.83
2018-03-15T23:04:59.246Z,14.20
2018-03-15T23:07:27.600Z,13.50
2018-03-15T23:09:57.482Z,11.03
2018-03-15T23:12:26.540Z,13.30
2018-03-15T23:14:54.883Z,11.33
2018-03-15T23:17:23.290Z,14.87
2018-03-15T23:19:51.646Z,13.93
2018-03-15T23:22:20.011Z,14.60
2018-03-15T23:24:48.386Z,12.80
2018-03-15T23:27:16.899Z,13.47
2018-03-15T23:29:45.256Z,11.60
2018-03-15T23:32:13.633Z,17.03
2018-03-15T23:34:41.985Z,14.00
2018-03-15T23:37:10.356Z,14.40
2018-03-15T23:39:40.134Z,17.23
2018-03-15T23:42:08.486Z,11.50
2018-03-15T23:44:36.849Z,10.70
2018-03-15T23:47:05.258Z,9.90
2018-03-15T23:49:33.603Z,9.70
2018-03-15T23:52:03.383Z,9.67
2018-03-15T23:54:31.736Z,6.53
2018-03-15T23:57:00.091Z,8.07
2018-03-15T23:59:28.482Z,9.40
